Terminal Aerodrome Forecast
Issued by NWS Grand Rapids, MI

Home | Current Version | Previous Version | Text Only | Print | Product List | Glossary On
Versions: 1 2 3 4 5 6 7 8 9 10 11 12 13 14 15 16 17 18 19 20
009
FTUS43 KGRR 270533
TAFGRR
TAF
KGRR 270533Z 2706/2806 19003KT P6SM SCT150
     FM270900 18004KT 5SM BR BKN070
     FM271800 18010KT P6SM VCTS OVC050CB
     FM272200 18008KT P6SM BKN080
     FM280200 17007KT P6SM VCTS BKN050CB=

USA.gov is the U.S. government's official web portal to all federal, state and local government web resources and services.